sensor_id;sensor_type;location;lat;lon;timestamp;P1;durP1;ratioP1;P2;durP2;ratioP2
77522;SDS011;66637;-29.628;-49.938;2023-12-20T00:02:16;167.18;;;22.05;;
77522;SDS011;66637;-29.628;-49.938;2023-12-20T00:04:47;188.40;;;26.70;;
77522;SDS011;66637;-29.628;-49.938;2023-12-20T00:07:19;233.68;;;28.55;;
77522;SDS011;66637;-29.628;-49.938;2023-12-20T00:09:50;210.75;;;27.15;;
77522;SDS011;66637;-29.628;-49.938;2023-12-20T00:12:20;268.95;;;35.03;;
77522;SDS011;66637;-29.628;-49.938;2023-12-20T00:14:50;291.88;;;37.38;;
77522;SDS011;66637;-29.628;-49.938;2023-12-20T00:17:22;230.48;;;30.23;;
77522;SDS011;66637;-29.628;-49.938;2023-12-20T00:19:53;175.98;;;23.08;;
77522;SDS011;66637;-29.628;-49.938;2023-12-20T00:22:23;191.13;;;24.88;;
77522;SDS011;66637;-29.628;-49.938;2023-12-20T00:24:54;175.15;;;23.50;;
77522;SDS011;66637;-29.628;-49.938;2023-12-20T00:27:24;222.30;;;29.60;;
77522;SDS011;66637;-29.628;-49.938;2023-12-20T00:29:54;246.25;;;31.98;;
77522;SDS011;66637;-29.628;-49.938;2023-12-20T00:32:25;275.42;;;34.05;;
77522;SDS011;66637;-29.628;-49.938;2023-12-20T00:34:57;268.08;;;32.15;;
77522;SDS011;66637;-29.628;-49.938;2023-12-20T00:37:28;276.17;;;37.38;;
77522;SDS011;66637;-29.628;-49.938;2023-12-20T00:39:59;288.90;;;37.90;;
77522;SDS011;66637;-29.628;-49.938;2023-12-20T00:42:29;266.55;;;34.55;;
77522;SDS011;66637;-29.628;-49.938;2023-12-20T00:45:00;257.25;;;31.45;;
77522;SDS011;66637;-29.628;-49.938;2023-12-20T00:47:31;197.95;;;25.27;;
77522;SDS011;66637;-29.628;-49.938;2023-12-20T00:50:02;172.18;;;22.98;;
77522;SDS011;66637;-29.628;-49.938;2023-12-20T00:52:35;174.98;;;23.13;;
77522;SDS011;66637;-29.628;-49.938;2023-12-20T00:55:06;175.07;;;20.67;;
77522;SDS011;66637;-29.628;-49.938;2023-12-20T00:57:39;154.05;;;19.25;;
77522;SDS011;66637;-29.628;-49.938;2023-12-20T01:00:10;180.32;;;21.92;;
77522;SDS011;66637;-29.628;-49.938;2023-12-20T01:02:43;114.30;;;15.82;;
77522;SDS011;66637;-29.628;-49.938;2023-12-20T01:05:15;148.95;;;18.52;;
77522;SDS011;66637;-29.628;-49.938;2023-12-20T01:07:48;122.80;;;16.45;;
77522;SDS011;66637;-29.628;-49.938;2023-12-20T01:10:20;165.18;;;21.33;;
77522;SDS011;66637;-29.628;-49.938;2023-12-20T01:12:52;141.10;;;22.10;;
77522;SDS011;66637;-29.628;-49.938;2023-12-20T01:15:22;154.15;;;20.02;;
77522;SDS011;66637;-29.628;-49.938;2023-12-20T01:17:52;157.50;;;20.73;;
77522;SDS011;66637;-29.628;-49.938;2023-12-20T01:20:25;152.10;;;19.70;;
77522;SDS011;66637;-29.628;-49.938;2023-12-20T01:22:54;151.80;;;18.70;;
77522;SDS011;66637;-29.628;-49.938;2023-12-20T01:25:25;152.15;;;19.17;;
77522;SDS011;66637;-29.628;-49.938;2023-12-20T01:27:56;130.68;;;16.95;;
77522;SDS011;66637;-29.628;-49.938;2023-12-20T01:30:28;138.90;;;18.88;;
77522;SDS011;66637;-29.628;-49.938;2023-12-20T01:33:00;170.88;;;20.70;;
77522;SDS011;66637;-29.628;-49.938;2023-12-20T01:35:31;156.57;;;19.88;;
77522;SDS011;66637;-29.628;-49.938;2023-12-20T01:38:02;125.15;;;16.77;;
77522;SDS011;66637;-29.628;-49.938;2023-12-20T01:40:34;146.50;;;17.85;;
77522;SDS011;66637;-29.628;-49.938;2023-12-20T01:43:08;157.55;;;19.27;;
77522;SDS011;66637;-29.628;-49.938;2023-12-20T01:45:38;186.82;;;22.58;;
77522;SDS011;66637;-29.628;-49.938;2023-12-20T01:48:10;197.07;;;22.40;;
77522;SDS011;66637;-29.628;-49.938;2023-12-20T01:50:40;158.98;;;19.92;;
77522;SDS011;66637;-29.628;-49.938;2023-12-20T01:53:13;169.15;;;19.75;;
77522;SDS011;66637;-29.628;-49.938;2023-12-20T01:55:45;146.68;;;18.23;;
77522;SDS011;66637;-29.628;-49.938;2023-12-20T01:58:17;164.55;;;19.55;;
77522;SDS011;66637;-29.628;-49.938;2023-12-20T02:00:49;145.50;;;15.95;;
77522;SDS011;66637;-29.628;-49.938;2023-12-20T02:03:21;155.07;;;20.58;;
77522;SDS011;66637;-29.628;-49.938;2023-12-20T02:05:51;166.45;;;20.50;;
77522;SDS011;66637;-29.628;-49.938;2023-12-20T02:08:24;163.82;;;19.88;;
77522;SDS011;66637;-29.628;-49.938;2023-12-20T02:10:54;139.52;;;17.27;;
77522;SDS011;66637;-29.628;-49.938;2023-12-20T02:13:27;160.70;;;21.30;;
77522;SDS011;66637;-29.628;-49.938;2023-12-20T02:15:58;145.90;;;17.60;;
77522;SDS011;66637;-29.628;-49.938;2023-12-20T02:18:29;129.80;;;17.80;;
77522;SDS011;66637;-29.628;-49.938;2023-12-20T02:21:00;152.55;;;17.13;;
77522;SDS011;66637;-29.628;-49.938;2023-12-20T02:23:30;168.48;;;20.85;;
77522;SDS011;66637;-29.628;-49.938;2023-12-20T02:26:02;151.32;;;17.98;;
77522;SDS011;66637;-29.628;-49.938;2023-12-20T02:28:34;164.25;;;18.83;;
77522;SDS011;66637;-29.628;-49.938;2023-12-20T02:31:04;154.73;;;18.58;;
77522;SDS011;66637;-29.628;-49.938;2023-12-20T02:33:36;161.10;;;18.58;;
77522;SDS011;66637;-29.628;-49.938;2023-12-20T02:36:08;132.88;;;16.17;;
77522;SDS011;66637;-29.628;-49.938;2023-12-20T02:38:38;126.18;;;16.20;;
77522;SDS011;66637;-29.628;-49.938;2023-12-20T02:41:09;145.00;;;17.13;;
77522;SDS011;66637;-29.628;-49.938;2023-12-20T02:43:39;135.95;;;18.83;;
77522;SDS011;66637;-29.628;-49.938;2023-12-20T02:46:10;143.45;;;16.58;;
77522;SDS011;66637;-29.628;-49.938;2023-12-20T02:48:43;144.20;;;17.55;;
77522;SDS011;66637;-29.628;-49.938;2023-12-20T02:51:13;126.65;;;15.90;;
77522;SDS011;66637;-29.628;-49.938;2023-12-20T02:53:45;139.23;;;17.85;;
77522;SDS011;66637;-29.628;-49.938;2023-12-20T02:56:15;179.75;;;19.95;;
77522;SDS011;66637;-29.628;-49.938;2023-12-20T02:58:46;177.00;;;21.30;;
77522;SDS011;66637;-29.628;-49.938;2023-12-20T03:01:17;153.27;;;18.83;;
77522;SDS011;66637;-29.628;-49.938;2023-12-20T03:03:48;184.82;;;22.20;;
77522;SDS011;66637;-29.628;-49.938;2023-12-20T03:06:20;159.32;;;20.40;;
77522;SDS011;66637;-29.628;-49.938;2023-12-20T03:08:52;139.40;;;17.27;;
77522;SDS011;66637;-29.628;-49.938;2023-12-20T03:11:26;163.95;;;17.40;;
77522;SDS011;66637;-29.628;-49.938;2023-12-20T03:13:57;151.50;;;17.80;;
77522;SDS011;66637;-29.628;-49.938;2023-12-20T03:16:29;157.55;;;19.15;;
77522;SDS011;66637;-29.628;-49.938;2023-12-20T03:19:03;145.73;;;18.25;;
77522;SDS011;66637;-29.628;-49.938;2023-12-20T03:21:33;144.20;;;17.67;;
77522;SDS011;66637;-29.628;-49.938;2023-12-20T03:24:05;137.65;;;16.80;;
77522;SDS011;66637;-29.628;-49.938;2023-12-20T03:26:37;142.27;;;15.90;;
77522;SDS011;66637;-29.628;-49.938;2023-12-20T03:29:08;93.45;;;13.05;;
77522;SDS011;66637;-29.628;-49.938;2023-12-20T03:31:39;107.82;;;12.57;;
77522;SDS011;66637;-29.628;-49.938;2023-12-20T03:34:11;128.80;;;15.48;;
77522;SDS011;66637;-29.628;-49.938;2023-12-20T03:36:42;114.20;;;12.90;;
77522;SDS011;66637;-29.628;-49.938;2023-12-20T03:39:13;103.95;;;12.88;;
77522;SDS011;66637;-29.628;-49.938;2023-12-20T03:41:43;102.82;;;12.10;;
77522;SDS011;66637;-29.628;-49.938;2023-12-20T03:44:15;91.38;;;12.25;;
77522;SDS011;66637;-29.628;-49.938;2023-12-20T03:46:45;106.25;;;13.48;;
77522;SDS011;66637;-29.628;-49.938;2023-12-20T03:49:16;97.97;;;12.63;;
77522;SDS011;66637;-29.628;-49.938;2023-12-20T03:51:48;85.57;;;10.55;;
77522;SDS011;66637;-29.628;-49.938;2023-12-20T03:54:19;92.00;;;12.27;;
77522;SDS011;66637;-29.628;-49.938;2023-12-20T03:56:49;97.93;;;11.23;;
77522;SDS011;66637;-29.628;-49.938;2023-12-20T03:59:20;117.65;;;13.52;;
77522;SDS011;66637;-29.628;-49.938;2023-12-20T04:01:50;87.35;;;11.40;;
77522;SDS011;66637;-29.628;-49.938;2023-12-20T04:04:20;83.30;;;11.38;;
77522;SDS011;66637;-29.628;-49.938;2023-12-20T04:06:51;122.75;;;13.23;;
77522;SDS011;66637;-29.628;-49.938;2023-12-20T04:09:22;99.78;;;11.20;;
77522;SDS011;66637;-29.628;-49.938;2023-12-20T04:11:53;107.00;;;12.48;;
77522;SDS011;66637;-29.628;-49.938;2023-12-20T04:14:23;98.38;;;13.90;;
77522;SDS011;66637;-29.628;-49.938;2023-12-20T04:16:55;100.28;;;11.63;;
77522;SDS011;66637;-29.628;-49.938;2023-12-20T04:19:25;104.18;;;12.70;;
77522;SDS011;66637;-29.628;-49.938;2023-12-20T04:21:56;87.47;;;11.32;;
77522;SDS011;66637;-29.628;-49.938;2023-12-20T04:24:27;104.53;;;12.27;;
77522;SDS011;66637;-29.628;-49.938;2023-12-20T04:26:58;95.07;;;11.52;;
77522;SDS011;66637;-29.628;-49.938;2023-12-20T04:29:28;114.63;;;12.10;;
77522;SDS011;66637;-29.628;-49.938;2023-12-20T04:32:00;141.27;;;15.77;;
77522;SDS011;66637;-29.628;-49.938;2023-12-20T04:34:32;94.55;;;10.65;;
77522;SDS011;66637;-29.628;-49.938;2023-12-20T04:37:02;91.93;;;11.68;;
77522;SDS011;66637;-29.628;-49.938;2023-12-20T04:39:33;102.25;;;11.50;;
77522;SDS011;66637;-29.628;-49.938;2023-12-20T04:42:06;108.10;;;12.73;;
77522;SDS011;66637;-29.628;-49.938;2023-12-20T04:44:36;105.80;;;13.07;;
77522;SDS011;66637;-29.628;-49.938;2023-12-20T04:47:07;65.30;;;8.80;;
77522;SDS011;66637;-29.628;-49.938;2023-12-20T04:49:38;91.38;;;12.20;;
77522;SDS011;66637;-29.628;-49.938;2023-12-20T04:52:08;95.95;;;10.85;;
77522;SDS011;66637;-29.628;-49.938;2023-12-20T04:54:38;103.50;;;12.07;;
77522;SDS011;66637;-29.628;-49.938;2023-12-20T04:57:12;90.38;;;11.43;;
77522;SDS011;66637;-29.628;-49.938;2023-12-20T04:59:42;93.15;;;10.80;;
77522;SDS011;66637;-29.628;-49.938;2023-12-20T05:02:12;89.13;;;11.18;;
77522;SDS011;66637;-29.628;-49.938;2023-12-20T05:04:43;89.88;;;10.25;;
77522;SDS011;66637;-29.628;-49.938;2023-12-20T05:07:14;96.75;;;10.30;;
77522;SDS011;66637;-29.628;-49.938;2023-12-20T05:09:44;96.03;;;11.40;;
77522;SDS011;66637;-29.628;-49.938;2023-12-20T05:12:15;85.22;;;10.13;;
77522;SDS011;66637;-29.628;-49.938;2023-12-20T05:14:46;101.80;;;12.35;;
77522;SDS011;66637;-29.628;-49.938;2023-12-20T05:17:16;94.68;;;11.57;;
77522;SDS011;66637;-29.628;-49.938;2023-12-20T05:19:47;102.00;;;11.25;;
77522;SDS011;66637;-29.628;-49.938;2023-12-20T05:22:20;123.60;;;13.75;;
77522;SDS011;66637;-29.628;-49.938;2023-12-20T05:24:51;114.22;;;12.20;;
77522;SDS011;66637;-29.628;-49.938;2023-12-20T05:27:22;111.22;;;12.88;;
77522;SDS011;66637;-29.628;-49.938;2023-12-20T05:30:11;114.13;;;11.52;;
77522;SDS011;66637;-29.628;-49.938;2023-12-20T05:32:42;78.22;;;11.23;;
77522;SDS011;66637;-29.628;-49.938;2023-12-20T05:35:13;101.63;;;10.15;;
77522;SDS011;66637;-29.628;-49.938;2023-12-20T05:37:46;94.93;;;11.60;;
77522;SDS011;66637;-29.628;-49.938;2023-12-20T05:40:17;106.38;;;12.30;;
77522;SDS011;66637;-29.628;-49.938;2023-12-20T05:42:48;129.07;;;15.32;;
77522;SDS011;66637;-29.628;-49.938;2023-12-20T05:45:19;125.68;;;15.15;;
77522;SDS011;66637;-29.628;-49.938;2023-12-20T05:47:50;132.38;;;15.90;;
77522;SDS011;66637;-29.628;-49.938;2023-12-20T05:50:21;130.15;;;14.48;;
77522;SDS011;66637;-29.628;-49.938;2023-12-20T05:52:51;97.13;;;11.65;;
77522;SDS011;66637;-29.628;-49.938;2023-12-20T05:55:21;65.85;;;8.57;;
77522;SDS011;66637;-29.628;-49.938;2023-12-20T05:57:51;59.63;;;8.45;;
77522;SDS011;66637;-29.628;-49.938;2023-12-20T06:00:23;65.50;;;8.60;;
77522;SDS011;66637;-29.628;-49.938;2023-12-20T06:02:55;69.50;;;8.07;;
77522;SDS011;66637;-29.628;-49.938;2023-12-20T06:05:26;57.22;;;7.85;;
77522;SDS011;66637;-29.628;-49.938;2023-12-20T06:07:57;53.60;;;6.82;;
77522;SDS011;66637;-29.628;-49.938;2023-12-20T06:10:31;85.57;;;10.10;;
77522;SDS011;66637;-29.628;-49.938;2023-12-20T06:13:02;167.70;;;19.67;;
77522;SDS011;66637;-29.628;-49.938;2023-12-20T06:15:35;168.10;;;18.45;;
77522;SDS011;66637;-29.628;-49.938;2023-12-20T06:18:06;120.95;;;16.52;;
77522;SDS011;66637;-29.628;-49.938;2023-12-20T06:20:38;125.25;;;15.43;;
77522;SDS011;66637;-29.628;-49.938;2023-12-20T06:23:08;151.65;;;17.77;;
77522;SDS011;66637;-29.628;-49.938;2023-12-20T06:25:40;107.03;;;15.40;;
77522;SDS011;66637;-29.628;-49.938;2023-12-20T06:28:10;101.00;;;12.18;;
77522;SDS011;66637;-29.628;-49.938;2023-12-20T06:30:44;157.30;;;18.58;;
77522;SDS011;66637;-29.628;-49.938;2023-12-20T06:33:17;180.90;;;21.73;;
77522;SDS011;66637;-29.628;-49.938;2023-12-20T06:35:49;155.43;;;19.70;;
77522;SDS011;66637;-29.628;-49.938;2023-12-20T06:38:20;155.98;;;17.77;;
77522;SDS011;66637;-29.628;-49.938;2023-12-20T06:40:51;133.95;;;16.13;;
77522;SDS011;66637;-29.628;-49.938;2023-12-20T06:43:23;147.32;;;18.50;;
77522;SDS011;66637;-29.628;-49.938;2023-12-20T06:46:13;156.25;;;19.08;;
77522;SDS011;66637;-29.628;-49.938;2023-12-20T06:48:43;190.60;;;22.00;;
77522;SDS011;66637;-29.628;-49.938;2023-12-20T06:51:15;193.35;;;24.05;;
77522;SDS011;66637;-29.628;-49.938;2023-12-20T06:53:48;146.32;;;17.30;;
77522;SDS011;66637;-29.628;-49.938;2023-12-20T06:56:19;171.05;;;19.40;;
77522;SDS011;66637;-29.628;-49.938;2023-12-20T06:58:49;144.38;;;17.10;;
77522;SDS011;66637;-29.628;-49.938;2023-12-20T07:01:20;127.65;;;15.82;;
77522;SDS011;66637;-29.628;-49.938;2023-12-20T07:03:51;125.07;;;14.73;;
77522;SDS011;66637;-29.628;-49.938;2023-12-20T07:06:22;172.20;;;20.80;;
77522;SDS011;66637;-29.628;-49.938;2023-12-20T07:08:54;121.05;;;15.57;;
77522;SDS011;66637;-29.628;-49.938;2023-12-20T07:11:25;159.65;;;19.52;;
77522;SDS011;66637;-29.628;-49.938;2023-12-20T07:13:55;181.38;;;21.35;;
77522;SDS011;66637;-29.628;-49.938;2023-12-20T07:16:27;160.63;;;17.92;;
77522;SDS011;66637;-29.628;-49.938;2023-12-20T07:18:58;137.18;;;15.60;;
77522;SDS011;66637;-29.628;-49.938;2023-12-20T07:21:28;153.15;;;15.80;;
77522;SDS011;66637;-29.628;-49.938;2023-12-20T07:23:58;178.85;;;20.00;;
77522;SDS011;66637;-29.628;-49.938;2023-12-20T07:26:29;175.77;;;20.08;;
77522;SDS011;66637;-29.628;-49.938;2023-12-20T07:29:01;169.20;;;19.65;;
77522;SDS011;66637;-29.628;-49.938;2023-12-20T07:31:33;150.02;;;18.75;;
77522;SDS011;66637;-29.628;-49.938;2023-12-20T07:34:05;175.32;;;19.85;;
77522;SDS011;66637;-29.628;-49.938;2023-12-20T07:36:37;167.65;;;20.52;;
77522;SDS011;66637;-29.628;-49.938;2023-12-20T07:39:08;273.67;;;31.98;;
77522;SDS011;66637;-29.628;-49.938;2023-12-20T07:41:40;308.25;;;37.28;;
77522;SDS011;66637;-29.628;-49.938;2023-12-20T07:44:13;309.48;;;36.42;;
77522;SDS011;66637;-29.628;-49.938;2023-12-20T07:46:45;323.05;;;39.55;;
77522;SDS011;66637;-29.628;-49.938;2023-12-20T07:49:15;246.88;;;29.48;;
77522;SDS011;66637;-29.628;-49.938;2023-12-20T07:51:46;187.05;;;23.13;;
77522;SDS011;66637;-29.628;-49.938;2023-12-20T07:54:16;170.15;;;20.35;;
77522;SDS011;66637;-29.628;-49.938;2023-12-20T07:56:48;159.43;;;19.65;;
77522;SDS011;66637;-29.628;-49.938;2023-12-20T07:59:19;201.38;;;20.80;;
77522;SDS011;66637;-29.628;-49.938;2023-12-20T08:01:59;213.85;;;21.52;;
77522;SDS011;66637;-29.628;-49.938;2023-12-20T08:04:30;156.85;;;19.23;;
77522;SDS011;66637;-29.628;-49.938;2023-12-20T08:07:02;141.65;;;18.45;;
77522;SDS011;66637;-29.628;-49.938;2023-12-20T08:09:33;161.43;;;18.02;;
77522;SDS011;66637;-29.628;-49.938;2023-12-20T08:12:06;137.93;;;15.77;;
77522;SDS011;66637;-29.628;-49.938;2023-12-20T08:14:39;123.22;;;15.65;;
77522;SDS011;66637;-29.628;-49.938;2023-12-20T08:17:11;113.10;;;14.63;;
77522;SDS011;66637;-29.628;-49.938;2023-12-20T08:19:42;217.35;;;24.60;;
77522;SDS011;66637;-29.628;-49.938;2023-12-20T08:22:13;344.80;;;37.30;;
77522;SDS011;66637;-29.628;-49.938;2023-12-20T08:24:43;285.08;;;32.22;;
77522;SDS011;66637;-29.628;-49.938;2023-12-20T08:27:14;172.82;;;19.90;;
77522;SDS011;66637;-29.628;-49.938;2023-12-20T08:29:44;188.38;;;21.10;;
77522;SDS011;66637;-29.628;-49.938;2023-12-20T08:32:15;138.25;;;19.10;;
77522;SDS011;66637;-29.628;-49.938;2023-12-20T08:34:45;148.00;;;17.67;;
77522;SDS011;66637;-29.628;-49.938;2023-12-20T08:37:16;153.85;;;16.95;;
77522;SDS011;66637;-29.628;-49.938;2023-12-20T08:39:47;166.10;;;18.23;;
77522;SDS011;66637;-29.628;-49.938;2023-12-20T08:42:19;219.15;;;24.50;;
77522;SDS011;66637;-29.628;-49.938;2023-12-20T08:44:49;162.63;;;20.83;;
77522;SDS011;66637;-29.628;-49.938;2023-12-20T08:47:19;173.95;;;22.05;;
77522;SDS011;66637;-29.628;-49.938;2023-12-20T08:49:50;218.93;;;25.98;;
77522;SDS011;66637;-29.628;-49.938;2023-12-20T08:52:22;223.40;;;26.83;;
77522;SDS011;66637;-29.628;-49.938;2023-12-20T08:54:55;169.23;;;22.23;;
77522;SDS011;66637;-29.628;-49.938;2023-12-20T08:57:26;174.98;;;21.23;;
77522;SDS011;66637;-29.628;-49.938;2023-12-20T08:59:57;150.20;;;18.08;;
77522;SDS011;66637;-29.628;-49.938;2023-12-20T09:02:27;189.43;;;21.52;;
77522;SDS011;66637;-29.628;-49.938;2023-12-20T09:04:58;189.00;;;24.25;;
77522;SDS011;66637;-29.628;-49.938;2023-12-20T09:07:29;179.15;;;20.67;;
77522;SDS011;66637;-29.628;-49.938;2023-12-20T09:10:02;165.07;;;20.80;;
77522;SDS011;66637;-29.628;-49.938;2023-12-20T09:12:33;208.80;;;23.75;;
77522;SDS011;66637;-29.628;-49.938;2023-12-20T09:15:03;206.65;;;26.70;;
77522;SDS011;66637;-29.628;-49.938;2023-12-20T09:17:34;149.65;;;18.75;;
77522;SDS011;66637;-29.628;-49.938;2023-12-20T09:20:05;150.63;;;19.02;;
77522;SDS011;66637;-29.628;-49.938;2023-12-20T09:22:38;165.20;;;20.75;;
77522;SDS011;66637;-29.628;-49.938;2023-12-20T09:25:10;164.25;;;23.92;;
77522;SDS011;66637;-29.628;-49.938;2023-12-20T09:27:42;112.18;;;15.13;;
77522;SDS011;66637;-29.628;-49.938;2023-12-20T09:30:12;120.30;;;15.05;;
77522;SDS011;66637;-29.628;-49.938;2023-12-20T09:32:55;129.45;;;16.55;;
77522;SDS011;66637;-29.628;-49.938;2023-12-20T09:35:26;101.25;;;14.13;;
77522;SDS011;66637;-29.628;-49.938;2023-12-20T09:37:58;137.68;;;20.35;;
77522;SDS011;66637;-29.628;-49.938;2023-12-20T09:40:28;121.32;;;15.93;;
77522;SDS011;66637;-29.628;-49.938;2023-12-20T09:43:03;114.20;;;12.65;;
77522;SDS011;66637;-29.628;-49.938;2023-12-20T09:45:39;122.03;;;16.00;;
77522;SDS011;66637;-29.628;-49.938;2023-12-20T09:48:32;149.82;;;20.05;;
77522;SDS011;66637;-29.628;-49.938;2023-12-20T09:51:04;122.82;;;17.25;;
77522;SDS011;66637;-29.628;-49.938;2023-12-20T09:53:35;112.53;;;14.88;;
77522;SDS011;66637;-29.628;-49.938;2023-12-20T09:56:08;92.20;;;11.32;;
77522;SDS011;66637;-29.628;-49.938;2023-12-20T09:58:38;91.53;;;12.30;;
77522;SDS011;66637;-29.628;-49.938;2023-12-20T10:01:09;122.63;;;15.55;;
77522;SDS011;66637;-29.628;-49.938;2023-12-20T10:03:41;110.80;;;15.57;;
77522;SDS011;66637;-29.628;-49.938;2023-12-20T10:06:12;170.18;;;21.42;;
77522;SDS011;66637;-29.628;-49.938;2023-12-20T10:08:43;155.20;;;21.05;;
77522;SDS011;66637;-29.628;-49.938;2023-12-20T10:11:14;155.18;;;20.48;;
77522;SDS011;66637;-29.628;-49.938;2023-12-20T10:13:44;149.50;;;20.85;;
77522;SDS011;66637;-29.628;-49.938;2023-12-20T10:16:24;124.45;;;17.25;;
77522;SDS011;66637;-29.628;-49.938;2023-12-20T10:18:56;128.77;;;16.45;;
77522;SDS011;66637;-29.628;-49.938;2023-12-20T10:21:27;133.68;;;17.10;;
77522;SDS011;66637;-29.628;-49.938;2023-12-20T10:23:57;128.02;;;17.13;;
77522;SDS011;66637;-29.628;-49.938;2023-12-20T10:26:28;129.65;;;17.27;;
77522;SDS011;66637;-29.628;-49.938;2023-12-20T10:29:01;159.10;;;20.60;;
77522;SDS011;66637;-29.628;-49.938;2023-12-20T10:31:33;135.30;;;18.70;;
77522;SDS011;66637;-29.628;-49.938;2023-12-20T10:34:04;150.52;;;19.17;;
77522;SDS011;66637;-29.628;-49.938;2023-12-20T10:36:35;142.18;;;19.10;;
77522;SDS011;66637;-29.628;-49.938;2023-12-20T10:39:07;149.05;;;19.75;;
77522;SDS011;66637;-29.628;-49.938;2023-12-20T10:41:40;98.85;;;14.65;;
77522;SDS011;66637;-29.628;-49.938;2023-12-20T10:44:11;149.95;;;19.95;;
77522;SDS011;66637;-29.628;-49.938;2023-12-20T10:46:43;103.05;;;14.60;;
77522;SDS011;66637;-29.628;-49.938;2023-12-20T10:49:20;131.48;;;17.65;;
77522;SDS011;66637;-29.628;-49.938;2023-12-20T10:51:51;95.05;;;13.52;;
77522;SDS011;66637;-29.628;-49.938;2023-12-20T10:54:26;155.15;;;19.15;;
77522;SDS011;66637;-29.628;-49.938;2023-12-20T10:56:57;155.63;;;20.25;;
77522;SDS011;66637;-29.628;-49.938;2023-12-20T10:59:29;156.32;;;19.63;;
77522;SDS011;66637;-29.628;-49.938;2023-12-20T11:02:07;144.95;;;19.27;;
77522;SDS011;66637;-29.628;-49.938;2023-12-20T11:07:21;78.45;;;11.95;;
77522;SDS011;66637;-29.628;-49.938;2023-12-20T11:10:21;74.00;;;11.75;;
77522;SDS011;66637;-29.628;-49.938;2023-12-20T11:13:37;76.07;;;10.70;;
77522;SDS011;66637;-29.628;-49.938;2023-12-20T11:16:02;64.28;;;9.88;;
77522;SDS011;66637;-29.628;-49.938;2023-12-20T11:18:33;79.28;;;11.45;;
77522;SDS011;66637;-29.628;-49.938;2023-12-20T11:21:05;83.72;;;11.65;;
77522;SDS011;66637;-29.628;-49.938;2023-12-20T11:23:38;84.90;;;11.60;;
77522;SDS011;66637;-29.628;-49.938;2023-12-20T11:26:09;74.95;;;10.52;;
77522;SDS011;66637;-29.628;-49.938;2023-12-20T11:28:39;86.55;;;11.00;;
77522;SDS011;66637;-29.628;-49.938;2023-12-20T11:31:13;78.00;;;11.45;;
77522;SDS011;66637;-29.628;-49.938;2023-12-20T11:33:45;86.88;;;12.57;;
77522;SDS011;66637;-29.628;-49.938;2023-12-20T11:36:21;72.57;;;11.77;;
77522;SDS011;66637;-29.628;-49.938;2023-12-20T11:38:56;58.47;;;8.27;;
77522;SDS011;66637;-29.628;-49.938;2023-12-20T11:41:27;62.80;;;8.80;;
77522;SDS011;66637;-29.628;-49.938;2023-12-20T11:43:57;89.95;;;11.68;;
77522;SDS011;66637;-29.628;-49.938;2023-12-20T11:46:27;67.35;;;8.98;;
77522;SDS011;66637;-29.628;-49.938;2023-12-20T11:48:59;78.07;;;11.50;;
77522;SDS011;66637;-29.628;-49.938;2023-12-20T11:51:32;90.00;;;12.50;;
77522;SDS011;66637;-29.628;-49.938;2023-12-20T11:54:02;61.65;;;9.07;;
77522;SDS011;66637;-29.628;-49.938;2023-12-20T11:56:32;69.50;;;9.57;;
77522;SDS011;66637;-29.628;-49.938;2023-12-20T11:59:03;74.75;;;9.77;;
77522;SDS011;66637;-29.628;-49.938;2023-12-20T12:01:50;62.63;;;8.35;;
77522;SDS011;66637;-29.628;-49.938;2023-12-20T12:04:21;59.70;;;8.43;;
77522;SDS011;66637;-29.628;-49.938;2023-12-20T12:06:52;68.32;;;8.75;;
77522;SDS011;66637;-29.628;-49.938;2023-12-20T12:09:23;92.15;;;13.02;;
77522;SDS011;66637;-29.628;-49.938;2023-12-20T12:11:54;79.22;;;12.25;;
77522;SDS011;66637;-29.628;-49.938;2023-12-20T12:14:24;80.53;;;11.73;;
77522;SDS011;66637;-29.628;-49.938;2023-12-20T12:16:55;100.55;;;14.88;;
77522;SDS011;66637;-29.628;-49.938;2023-12-20T12:19:27;112.65;;;15.82;;
77522;SDS011;66637;-29.628;-49.938;2023-12-20T12:22:06;79.70;;;11.05;;
77522;SDS011;66637;-29.628;-49.938;2023-12-20T12:24:50;89.97;;;13.35;;
77522;SDS011;66637;-29.628;-49.938;2023-12-20T12:27:21;108.35;;;15.48;;
77522;SDS011;66637;-29.628;-49.938;2023-12-20T12:30:03;70.05;;;9.05;;
77522;SDS011;66637;-29.628;-49.938;2023-12-20T12:32:38;66.55;;;7.75;;
77522;SDS011;66637;-29.628;-49.938;2023-12-20T12:35:09;88.40;;;11.98;;
77522;SDS011;66637;-29.628;-49.938;2023-12-20T12:37:40;70.00;;;10.20;;
77522;SDS011;66637;-29.628;-49.938;2023-12-20T12:40:11;52.47;;;6.90;;
77522;SDS011;66637;-29.628;-49.938;2023-12-20T12:42:44;97.60;;;12.80;;
77522;SDS011;66637;-29.628;-49.938;2023-12-20T12:45:14;79.03;;;10.35;;
77522;SDS011;66637;-29.628;-49.938;2023-12-20T12:47:45;75.75;;;10.95;;
77522;SDS011;66637;-29.628;-49.938;2023-12-20T12:50:15;57.90;;;7.70;;
77522;SDS011;66637;-29.628;-49.938;2023-12-20T12:52:46;61.13;;;8.63;;
77522;SDS011;66637;-29.628;-49.938;2023-12-20T12:55:16;57.65;;;8.75;;
77522;SDS011;66637;-29.628;-49.938;2023-12-20T12:57:48;73.50;;;11.77;;
77522;SDS011;66637;-29.628;-49.938;2023-12-20T13:00:18;88.43;;;13.00;;
77522;SDS011;66637;-29.628;-49.938;2023-12-20T13:02:48;77.35;;;11.57;;
77522;SDS011;66637;-29.628;-49.938;2023-12-20T13:05:19;68.93;;;11.02;;
77522;SDS011;66637;-29.628;-49.938;2023-12-20T13:07:49;82.63;;;11.85;;
77522;SDS011;66637;-29.628;-49.938;2023-12-20T13:10:20;91.35;;;12.27;;
77522;SDS011;66637;-29.628;-49.938;2023-12-20T13:12:52;71.43;;;9.82;;
77522;SDS011;66637;-29.628;-49.938;2023-12-20T13:15:22;77.35;;;10.98;;
77522;SDS011;66637;-29.628;-49.938;2023-12-20T13:17:53;85.97;;;12.98;;
77522;SDS011;66637;-29.628;-49.938;2023-12-20T13:20:23;79.57;;;12.77;;
77522;SDS011;66637;-29.628;-49.938;2023-12-20T13:22:53;85.22;;;12.82;;
77522;SDS011;66637;-29.628;-49.938;2023-12-20T13:25:25;96.03;;;14.15;;
77522;SDS011;66637;-29.628;-49.938;2023-12-20T13:28:01;64.18;;;9.63;;
77522;SDS011;66637;-29.628;-49.938;2023-12-20T13:30:34;63.58;;;9.10;;
77522;SDS011;66637;-29.628;-49.938;2023-12-20T13:33:05;85.93;;;12.27;;
77522;SDS011;66637;-29.628;-49.938;2023-12-20T13:35:36;56.75;;;7.68;;
77522;SDS011;66637;-29.628;-49.938;2023-12-20T13:38:08;75.88;;;12.43;;
77522;SDS011;66637;-29.628;-49.938;2023-12-20T13:40:40;85.00;;;12.07;;
77522;SDS011;66637;-29.628;-49.938;2023-12-20T13:43:11;78.10;;;11.90;;
77522;SDS011;66637;-29.628;-49.938;2023-12-20T13:45:42;75.40;;;11.45;;
77522;SDS011;66637;-29.628;-49.938;2023-12-20T13:48:12;84.93;;;13.48;;
77522;SDS011;66637;-29.628;-49.938;2023-12-20T13:50:44;79.25;;;10.93;;
77522;SDS011;66637;-29.628;-49.938;2023-12-20T13:53:14;69.00;;;9.73;;
77522;SDS011;66637;-29.628;-49.938;2023-12-20T13:55:45;102.25;;;14.02;;
77522;SDS011;66637;-29.628;-49.938;2023-12-20T13:58:16;104.45;;;15.73;;
77522;SDS011;66637;-29.628;-49.938;2023-12-20T14:00:46;93.25;;;15.43;;
77522;SDS011;66637;-29.628;-49.938;2023-12-20T14:03:18;97.95;;;14.48;;
77522;SDS011;66637;-29.628;-49.938;2023-12-20T14:05:49;102.63;;;13.98;;
77522;SDS011;66637;-29.628;-49.938;2023-12-20T14:08:20;122.90;;;16.35;;